Data for 02/02/2008

Time Sea-Level Adjusted Pressure Absolute Pressure Temperature Relative Humidity Dew Point   
(mb) (inHg) (mb) (inHg) (C) (F) (%) (C) (F)
00:05 1011 29.85 841 24.83 -5.5 22.1 55 -13.2 8.3
00:10 1012 29.88 841 24.83 -5.5 22 56 -13.1 8.4
00:15 1011 29.85 841 24.83 -5.7 21.8 55 -13.4 7.9
00:20 1011 29.85 841 24.83 -5.4 22.2 53 -13.6 7.5
00:25 1011 29.85 841 24.83 -5.2 22.6 53 -13.5 7.7
00:30 1011 29.85 841 24.83 -5.2 22.6 52 -13.6 7.5
00:35 1011 29.85 841 24.83 -5.2 22.6 51 -13.7 7.3
00:40 1011 29.85 841 24.83 -5.3 22.5 52 -13.7 7.3
00:45 1011 29.85 841 24.83 -5.3 22.4 52 -13.7 7.3
00:50 1011 29.85 841 24.83 -5.4 22.3 52 -13.8 7.2
00:55 1011 29.85 841 24.83 -5.5 22.2 52 -13.9 7
01:00 1011 29.85 841 24.83 -5.5 22.1 51 -14 6.7
01:05 1011 29.85 841 24.83 -5.7 21.7 52 -14.1 6.7
01:10 1011 29.85 841 24.83 -5.7 21.7 52 -14.2 6.5
01:15 1011 29.85 841 24.83 -5.7 21.7 52 -14.1 6.6
01:20 1011 29.85 841 24.83 -5.7 21.8 52 -14.1 6.7
01:25 1011 29.85 841 24.83 -5.7 21.8 52 -14 6.8
01:30 1011 29.85 841 24.83 -5.7 21.7 52 -14.1 6.6
01:35 1011 29.85 841 24.83 -5.8 21.5 52 -14.2 6.4
01:40 1011 29.85 841 24.83 -5.8 21.5 51 -14.3 6.2
01:45 1011 29.85 841 24.83 -5.8 21.6 52 -14.3 6.3
01:50 1011 29.85 841 24.83 -5.8 21.5 51 -14.3 6.2
01:55 1011 29.85 841 24.83 -5.6 21.9 50 -14.5 5.8
02:00 1011 29.85 841 24.83 -5.4 22.3 49 -14.5 6
02:05 1011 29.85 841 24.83 -5.4 22.4 49 -14.4 6.1
02:10 1011 29.85 840 24.81 -5.1 22.7 47 -14.8 5.4
02:15 1011 29.85 840 24.81 -4.8 23.3 47 -14.4 6
02:20 1011 29.85 840 24.81 -4.9 23.2 48 -14.3 6.2
02:25 1011 29.85 841 24.83 -4.9 23.2 48 -14.3 6.3
02:30 1011 29.85 841 24.83 -4.9 23.1 49 -14.2 6.4
02:35 1011 29.85 841 24.83 -4.9 23.1 49 -14.1 6.6
02:40 1011 29.85 841 24.83 -4.8 23.3 48 -14.3 6.3
02:45 1011 29.85 841 24.83 -4.8 23.4 48 -14.2 6.4
02:50 1011 29.85 841 24.83 -4.8 23.3 47 -14.4 6.1
02:55 1011 29.85 841 24.83 -4.8 23.4 49 -14 6.8
03:00 1011 29.85 841 24.83 -4.9 23.1 51 -13.7 7.4
03:05 1011 29.85 841 24.83 -5.4 22.2 53 -13.5 7.7
03:10 1011 29.85 841 24.83 -5.9 21.4 54 -13.7 7.3
03:15 1011 29.85 841 24.83 -6.1 21 54 -13.9 7
03:20 1011 29.85 841 24.83 -6.1 21 54 -13.9 6.9
03:25 1011 29.85 841 24.83 -6.2 20.9 54 -14.1 6.6
03:30 1011 29.85 840 24.81 -6.1 21 53 -14.3 6.3
03:35 1011 29.85 840 24.81 -6.1 21 52 -14.5 6
03:40 1011 29.85 840 24.81 -6 21.2 50 -14.9 5.3
03:45 1011 29.85 840 24.81 -5.8 21.6 48 -15.2 4.6
03:50 1011 29.85 840 24.81 -5.7 21.8 49 -14.9 5.2
03:55 1011 29.85 840 24.81 -5.8 21.6 51 -14.4 6.1
04:00 1011 29.85 840 24.81 -6 21.2 51 -14.6 5.8
04:05 1011 29.85 840 24.81 -6.1 21 51 -14.7 5.5
04:10 1011 29.85 840 24.81 -6.1 20.9 53 -14.1 6.5
04:15 1011 29.85 840 24.81 -6.4 20.4 53 -14.4 6
04:20 1011 29.85 840 24.81 -6.5 20.4 52 -14.8 5.3
04:25 1011 29.85 840 24.81 -6.4 20.5 52 -14.6 5.7
04:30 1011 29.85 840 24.81 -6.5 20.3 53 -14.7 5.6
04:35 1011 29.85 840 24.81 -6.6 20.1 54 -14.5 5.8
04:40 1011 29.85 840 24.81 -6.4 20.5 46 -16.2 2.8
04:45 1011 29.85 840 24.81 -5.9 21.4 47 -15.4 4.3
04:50 1011 29.85 840 24.81 -5.8 21.5 48 -15.2 4.6
04:55 1011 29.85 840 24.81 -6.1 21.1 52 -14.4 6
05:00 1011 29.85 840 24.81 -6.5 20.2 53 -14.6 5.7
05:05 1011 29.85 840 24.81 -6.6 20.1 48 -15.8 3.5
05:10 1011 29.85 840 24.81 -6.3 20.7 48 -15.6 3.9
05:15 1011 29.85 840 24.81 -5.8 21.6 43 -16.3 2.6
05:20 1011 29.85 840 24.81 -5.5 22.1 44 -15.9 3.4
05:25 1011 29.85 840 24.81 -5.6 22 45 -15.6 3.8
05:30 1011 29.85 840 24.81 -5.8 21.5 46 -15.6 3.9
05:35 1011 29.85 840 24.81 -6 21.2 47 -15.7 3.8
05:40 1011 29.85 840 24.81 -6.1 21.1 47 -15.6 3.9
05:45 1011 29.85 840 24.81 -6.1 20.9 47 -15.7 3.7
05:50 1011 29.85 840 24.81 -6.1 21 47 -15.8 3.6
05:55 1011 29.85 840 24.81 -6.1 21.1 47 -15.7 3.7
06:00 1011 29.85 840 24.81 -6 21.1 46 -16 3.2
06:05 1011 29.85 840 24.81 -6 21.2 46 -15.8 3.6
06:10 1011 29.85 840 24.81 -6.1 20.9 47 -15.8 3.5
06:15 1011 29.85 840 24.81 -6.9 19.6 50 -15.6 4
06:20 1011 29.85 840 24.81 -7.9 17.8 55 -15.5 4
06:25 1011 29.85 840 24.81 -8.6 16.6 56 -15.9 3.5
06:30 1011 29.85 840 24.81 -8.7 16.3 56 -16 3.1
06:35 1011 29.85 840 24.81 -8.5 16.8 54 -16.2 2.8
06:40 1011 29.85 840 24.81 -8.1 17.4 52 -16.2 2.8
06:45 1011 29.85 840 24.81 -7.9 17.9 52 -16.1 3
06:50 1011 29.85 840 24.81 -7.9 17.8 53 -16 3.2
06:55 1011 29.85 840 24.81 -8 17.7 52 -16.1 3
07:00 1011 29.85 840 24.81 -7.9 17.8 52 -16.1 3
07:05 1011 29.85 840 24.81 -8.1 17.5 53 -16.1 3.1
07:10 1011 29.85 840 24.81 -8.4 16.9 54 -16.2 2.9
07:15 1011 29.85 840 24.81 -8.6 16.6 54 -16.3 2.7
07:20 1011 29.85 840 24.81 -8.8 16.2 56 -16.1 3
07:25 1011 29.85 840 24.81 -8.8 16.2 55 -16.2 2.8
07:30 1011 29.85 840 24.81 -8.9 15.9 55 -16.4 2.5
07:35 1011 29.85 840 24.81 -8.8 16.1 55 -16.4 2.6
07:40 1011 29.85 840 24.81 -9 15.7 56 -16.2 2.8
07:45 1011 29.85 840 24.81 -9.3 15.3 57 -16.4 2.4
07:50 1011 29.85 840 24.81 -9.3 15.3 56 -16.5 2.3
07:55 1011 29.85 840 24.81 -9.3 15.2 58 -16.1 3
08:00 1011 29.85 840 24.81 -9.7 14.5 58 -16.6 2.1
08:05 1011 29.85 840 24.81 -9.7 14.5 57 -16.7 2
08:10 1011 29.85 840 24.81 -9.6 14.7 57 -16.7 1.9
08:15 1011 29.85 840 24.81 -9.7 14.5 57 -16.7 2
08:20 1011 29.85 840 24.81 -9.4 15 55 -16.8 1.7
08:25 1011 29.85 840 24.81 -9 15.8 54 -16.7 2
08:30 1011 29.85 840 24.81 -8.8 16.1 54 -16.5 2.2
08:35 1011 29.85 840 24.81 -9.1 15.5 57 -16.2 2.9
08:40 1011 29.85 840 24.81 -9.3 15.3 56 -16.6 2.1
08:45 1011 29.85 840 24.81 -9.5 15 57 -16.4 2.4
08:50 1011 29.85 840 24.81 -9.7 14.5 58 -16.5 2.3
08:55 1011 29.85 840 24.81 -9.7 14.5 57 -16.6 2
09:00 1011 29.85 840 24.81 -9.4 15.1 55 -16.8 1.7
09:05 1011 29.85 840 24.81 -9 15.8 55 -16.6 2.1
09:10 1011 29.85 840 24.81 -8.9 15.9 55 -16.4 2.4
09:15 1011 29.85 840 24.81 -9 15.7 55 -16.5 2.4
09:20 1011 29.85 840 24.81 -9.2 15.4 56 -16.5 2.3
09:25 1011 29.85 840 24.81 -9.2 15.5 55 -16.6 2.1
09:30 1011 29.85 840 24.81 -8.9 16 54 -16.6 2.1
09:35 1011 29.85 840 24.81 -8.7 16.3 53 -16.5 2.2
09:40 1011 29.85 840 24.81 -8.5 16.8 52 -16.6 2.2
09:45 1011 29.85 840 24.81 -8.3 17.1 52 -16.5 2.3
09:50 1011 29.85 840 24.81 -8.1 17.4 51 -16.5 2.2
09:55 1011 29.85 840 24.81 -7.8 17.9 51 -16.4 2.4
10:00 1011 29.85 840 24.81 -7.6 18.4 50 -16.4 2.6
10:05 1011 29.85 840 24.81 -7.2 19 48 -16.5 2.4
10:10 1011 29.85 840 24.81 -6.7 20 46 -16.5 2.3
10:15 1011 29.85 840 24.81 -5.8 21.6 42 -16.7 1.9
10:20 1011 29.85 840 24.81 -5 22.9 42 -16.1 3.1
10:25 1011 29.85 840 24.81 -4.9 23.3 42 -16 3.2
10:30 1011 29.85 840 24.81 -4.6 23.8 41 -15.9 3.4
10:35 1011 29.85 840 24.81 -3.9 25 38 -16.3 2.7
10:40 1011 29.85 840 24.81 -3.4 25.9 38 -15.9 3.3
10:45 1011 29.85 840 24.81 -3.5 25.6 38 -15.9 3.4
10:50 1011 29.85 840 24.81 -3.4 25.9 38 -15.9 3.4
10:55 1011 29.85 840 24.81 -3 26.6 35 -16.3 2.6
11:00 1010 29.83 840 24.81 -3 26.7 35 -16.5 2.3
11:05 1010 29.83 840 24.81 -2.7 27.1 34 -16.6 2.1
11:10 1010 29.83 839 24.78 -2.3 27.8 33 -16.5 2.2
11:15 1010 29.83 839 24.78 -2.6 27.2 33 -16.7 2
11:20 1010 29.83 839 24.78 -2.9 26.8 34 -16.6 2.1
11:25 1010 29.83 839 24.78 -3.1 26.5 35 -16.5 2.2
11:30 1010 29.83 839 24.78 -2.6 27.3 34 -16.5 2.4
11:35 1010 29.83 839 24.78 -2.7 27.2 34 -16.6 2.1
11:40 1010 29.83 839 24.78 -2.2 28 34 -16.3 2.7
11:45 1010 29.83 839 24.78 -2.7 27.1 35 -16.4 2.6
11:50 1010 29.83 839 24.78 -2 28.4 32 -16.8 1.8
11:55 1010 29.83 839 24.78 -1.4 29.5 31 -16.6 2.2
12:00 1010 29.83 839 24.78 -1.2 29.9 31 -16.2 2.8
12:05 1009 29.8 839 24.78 -1.1 30 30 -16.6 2.1
12:10 1009 29.8 839 24.78 -1.7 28.9 32 -16.5 2.3
12:15 1009 29.8 839 24.78 -1.2 29.9 30 -16.8 1.7
12:20 1009 29.8 838 24.75 -0.7 30.7 31 -16 3.2
12:25 1009 29.8 838 24.75 -0.9 30.3 32 -15.8 3.5
12:30 1009 29.8 838 24.75 -0 31.9 31 -15.3 4.4
12:35 1009 29.8 838 24.75 0.6 33.1 29 -15.7 3.8
12:40 1009 29.8 838 24.75 0.7 33.3 28 -15.8 3.6
12:45 1009 29.8 838 24.75 -1.4 29.5 33 -15.5 4
12:50 1009 29.8 838 24.75 -1.4 29.5 32 -15.9 3.3
12:55 1009 29.8 838 24.75 -1 30.2 33 -15.5 4.1
13:00 1009 29.8 838 24.75 -0.6 31 29 -16.4 2.5
13:05 1009 29.8 838 24.75 -0.3 31.5 31 -15.5 4.1
13:10 1009 29.8 838 24.75 -2 28.3 34 -15.9 3.3
13:15 1009 29.8 838 24.75 -1.7 28.9 31 -16.9 1.6
13:20 1009 29.8 838 24.75 -1.4 29.5 31 -16.3 2.7
13:25 1008 29.77 838 24.75 -1.8 28.7 32 -16.4 2.5
13:30 1008 29.77 838 24.75 -2.2 28.1 35 -15.8 3.5
13:35 1008 29.77 837 24.72 -2.8 26.9 34 -16.5 2.3
13:40 1008 29.77 837 24.72 -3 26.5 35 -16.5 2.3
13:45 1008 29.77 837 24.72 -2.4 27.6 34 -16.4 2.4
13:50 1008 29.77 837 24.72 -2.1 28.2 33 -16.2 2.8
13:55 1008 29.77 837 24.72 -1.5 29.3 35 -15 4.9
14:00 1008 29.77 837 24.72 -1.4 29.5 35 -15.1 4.8
14:05 1008 29.77 837 24.72 -1.3 29.7 33 -15.5 4.2
14:10 1008 29.77 837 24.72 -1.1 29.9 35 -14.7 5.5
14:15 1008 29.77 837 24.72 -0.8 30.6 31 -15.8 3.6
14:20 1008 29.77 837 24.72 0.4 32.7 29 -15.7 3.7
14:25 1007 29.74 837 24.72 0.6 33 29 -15.4 4.4
14:30 1007 29.74 837 24.72 0.3 32.6 28 -16.2 2.8
14:35 1007 29.74 837 24.72 0.7 33.3 30 -15.2 4.7
14:40 1007 29.74 837 24.72 1 33.9 27 -15.9 3.4
14:45 1007 29.74 837 24.72 1.4 34.6 27 -15.6 4
14:50 1007 29.74 837 24.72 0.7 33.2 28 -15.8 3.6
14:55 1007 29.74 837 24.72 0.5 33 29 -15.8 3.6
15:00 1007 29.74 836 24.69 0.6 33.1 29 -15.6 3.9
15:05 1007 29.74 836 24.69 -0 31.9 30 -15.5 4
15:10 1007 29.74 836 24.69 0.1 32.3 29 -15.8 3.6
15:15 1007 29.74 836 24.69 0.5 32.9 29 -15.6 3.8
15:20 1007 29.74 836 24.69 0.7 33.3 28 -15.7 3.7
15:25 1007 29.74 836 24.69 0.8 33.5 28 -15.7 3.7
15:30 1007 29.74 836 24.69 1.1 34 27 -15.9 3.4
15:35 1007 29.74 836 24.69 0.5 32.8 30 -15.3 4.5
15:40 1007 29.74 836 24.69 -0.9 30.4 32 -15.7 3.7
15:45 1007 29.74 836 24.69 -1.6 29.2 33 -16 3.2
15:50 1007 29.74 836 24.69 -1.8 28.8 35 -15.5 4.1
15:55 1007 29.74 836 24.69 -1.8 28.7 34 -15.8 3.5
16:00 1007 29.74 836 24.69 -2.3 28 35 -15.9 3.4
16:05 1007 29.74 836 24.69 -2.9 26.7 36 -16 3.1
16:10 1007 29.74 836 24.69 -3 26.5 35 -16.3 2.6
16:15 1007 29.74 836 24.69 -2.6 27.4 35 -16.2 2.9
16:20 1007 29.74 836 24.69 -2.1 28.3 33 -16.3 2.7
16:25 1007 29.74 836 24.69 -1.1 30.1 32 -16 3.2
16:30 1007 29.74 836 24.69 -0.3 31.5 30 -16.1 3.1
16:35 1007 29.74 836 24.69 0.2 32.3 29 -15.7 3.8
16:40 1007 29.74 836 24.69 -0.4 31.3 30 -15.8 3.5
16:45 1007 29.74 836 24.69 -1.3 29.7 32 -15.9 3.4
16:50 1006 29.71 836 24.69 -1.6 29.1 32 -16.2 2.9
16:55 1006 29.71 836 24.69 -1.5 29.2 32 -16.1 3
17:00 1006 29.71 836 24.69 -2 28.4 33 -16.2 2.8
17:05 1006 29.71 835 24.66 -2 28.4 32 -16.5 2.3
17:10 1006 29.71 835 24.66 -1.9 28.6 32 -16.5 2.3
17:15 1006 29.71 835 24.66 -2.4 27.7 34 -16.2 2.8
17:20 1006 29.71 835 24.66 -2.9 26.8 35 -16.4 2.4
17:25 1006 29.71 835 24.66 -3.1 26.4 32 -17.5 0.6
17:30 1006 29.71 835 24.66 -3.4 25.9 34 -17 1.4
17:35 1006 29.71 835 24.66 -4.2 24.5 38 -16.4 2.5
17:40 1006 29.71 835 24.66 -3.8 25.1 35 -17.3 0.9
17:45 1006 29.71 835 24.66 -3.6 25.5 35 -16.9 1.6
17:50 1006 29.71 835 24.66 -3.8 25.1 35 -17.2 1
17:55 1006 29.71 835 24.66 -4.3 24.3 36 -17.4 0.7
18:00 1006 29.71 835 24.66 -4.5 23.9 36 -17.4 0.7
18:05 1006 29.71 835 24.66 -4.4 24 35 -17.7 0.2
18:10 1006 29.71 835 24.66 -4.4 24.1 34 -17.9 -0.2
18:15 1006 29.71 835 24.66 -4 24.7 35 -17.5 0.6
18:20 1006 29.71 835 24.66 -4.2 24.5 35 -17.6 0.3
18:25 1006 29.71 835 24.66 -4.1 24.6 34 -17.9 -0.2
18:30 1006 29.71 835 24.66 -4.2 24.5 35 -17.6 0.3
18:35 1006 29.71 835 24.66 -4.3 24.2 35 -17.7 0.1
18:40 1006 29.71 835 24.66 -4.9 23.2 36 -17.7 0.1
18:45 1006 29.71 835 24.66 -5.1 22.8 38 -17.3 0.8
18:50 1006 29.71 835 24.66 -4.8 23.3 38 -17.2 1.1
18:55 1006 29.71 835 24.66 -4.7 23.6 38 -16.9 1.5
19:00 1006 29.71 835 24.66 -4.2 24.4 34 -18 -0.3
19:05 1005 29.68 835 24.66 -4.6 23.8 38 -16.8 1.8
19:10 1005 29.68 835 24.66 -4.8 23.3 35 -17.9 -0.3
19:15 1005 29.68 835 24.66 -4.9 23.2 35 -18.1 -0.6
19:20 1005 29.68 835 24.66 -4.7 23.5 35 -18.1 -0.5
19:25 1005 29.68 835 24.66 -4.8 23.4 35 -17.9 -0.2
19:30 1005 29.68 835 24.66 -4.9 23.2 35 -18.2 -0.7
19:35 1005 29.68 834 24.63 -4.9 23.2 34 -18.5 -1.2
19:40 1005 29.68 834 24.63 -5 23 37 -17.7 0.2
19:45 1005 29.68 834 24.63 -5.4 22.4 39 -17.2 1
19:50 1005 29.68 834 24.63 -5.9 21.3 42 -17 1.5
19:55 1005 29.68 834 24.63 -6.3 20.7 44 -16.6 2.1
20:00 1005 29.68 834 24.63 -6.6 20.2 46 -16.3 2.6
20:05 1005 29.68 834 24.63 -6.9 19.7 48 -16.1 3
20:10 1005 29.68 834 24.63 -7 19.4 49 -16.1 3.1
20:15 1005 29.68 834 24.63 -7.2 19.1 50 -16 3.3
20:20 1005 29.68 834 24.63 -7.2 19 50 -15.9 3.3
20:25 1005 29.68 834 24.63 -7.2 19.1 50 -15.9 3.4
20:30 1005 29.68 834 24.63 -7.1 19.1 50 -15.8 3.6
20:35 1005 29.68 834 24.63 -7.2 19.1 50 -15.8 3.5
20:40 1005 29.68 834 24.63 -7.2 19.1 50 -15.9 3.4
20:45 1005 29.68 834 24.63 -7.2 19.1 51 -15.7 3.8
20:50 1005 29.68 834 24.63 -7.1 19.2 50 -15.8 3.6
20:55 1005 29.68 834 24.63 -7.1 19.2 51 -15.6 3.9
21:00 1005 29.68 834 24.63 -7 19.3 50 -15.9 3.5
21:05 1005 29.68 834 24.63 -6.9 19.5 50 -15.8 3.5
21:10 1005 29.68 834 24.63 -6.9 19.6 50 -15.8 3.6
21:15 1005 29.68 834 24.63 -6.9 19.6 50 -15.7 3.8
21:20 1005 29.68 834 24.63 -6.9 19.5 51 -15.6 4
21:25 1005 29.68 834 24.63 -6.9 19.6 50 -15.8 3.6
21:30 1005 29.68 834 24.63 -6.9 19.6 50 -15.6 3.9
21:35 1005 29.68 834 24.63 -6.8 19.7 51 -15.5 4.1
21:40 1005 29.68 834 24.63 -6.8 19.7 50 -15.5 4.1
21:45 1004 29.65 834 24.63 -6.8 19.8 50 -15.6 3.9
21:50 1004 29.65 834 24.63 -6.7 19.9 50 -15.5 4.1
21:55 1004 29.65 834 24.63 -6.7 20 49 -15.6 3.9
22:00 1004 29.65 834 24.63 -6.7 20 50 -15.5 4.1
22:05 1004 29.65 833 24.6 -6.6 20.1 49 -15.7 3.7
22:10 1004 29.65 833 24.6 -6.5 20.3 49 -15.6 4
22:15 1004 29.65 833 24.6 -6.5 20.3 49 -15.6 3.9
22:20 1004 29.65 833 24.6 -6.5 20.2 49 -15.5 4
22:25 1004 29.65 833 24.6 -6.6 20.2 49 -15.5 4
22:30 1004 29.65 833 24.6 -6.6 20.2 48 -15.9 3.3
22:35 1004 29.65 833 24.6 -6.5 20.3 49 -15.6 3.9
22:40 1004 29.65 833 24.6 -6.5 20.2 48 -16 3.3
22:45 1004 29.65 833 24.6 -6.4 20.4 48 -15.9 3.4
22:50 1004 29.65 833 24.6 -6.4 20.5 48 -15.8 3.5
22:55 1004 29.65 833 24.6 -6.3 20.7 47 -16 3.2
23:00 1004 29.65 833 24.6 -6.3 20.7 47 -15.8 3.5
23:05 1004 29.65 833 24.6 -6.4 20.5 47 -15.9 3.4
23:10 1004 29.65 833 24.6 -6.4 20.5 48 -15.7 3.7
23:15 1004 29.65 833 24.6 -6.4 20.5 47 -15.9 3.5
23:20 1004 29.65 833 24.6 -6.4 20.5 48 -15.8 3.5
23:25 1003 29.62 833 24.6 -6.4 20.5 48 -15.8 3.6
23:30 1003 29.62 833 24.6 -6.5 20.4 48 -15.7 3.7
23:35 1003 29.62 833 24.6 -6.5 20.2 49 -15.7 3.8
23:40 1003 29.62 832 24.57 -6.6 20.1 48 -16 3.3
23:45 1003 29.62 832 24.57 -6.5 20.3 49 -15.7 3.8
23:50 1003 29.62 832 24.57 -6.5 20.2 48 -15.7 3.7
23:55 1003 29.62 832 24.57 -6.5 20.3 50 -15.2 4.6
24:00 1003 29.62 832 24.57 -6.6 20.1 48 -15.9 3.4